sensor_id;sensor_type;location;lat;lon;timestamp;temperature;humidity
65584;DHT22;73032;43.592;1.458;2023-11-21T00:02:26;11.19;86.62
65584;DHT22;73032;43.592;1.458;2023-11-21T00:04:54;11.20;86.64
65584;DHT22;73032;43.592;1.458;2023-11-21T00:07:20;11.20;86.58
65584;DHT22;73032;43.592;1.458;2023-11-21T00:09:48;11.17;86.82
65584;DHT22;73032;43.592;1.458;2023-11-21T00:12:14;11.17;86.64
65584;DHT22;73032;43.592;1.458;2023-11-21T00:14:41;11.17;86.55
65584;DHT22;73032;43.592;1.458;2023-11-21T00:17:08;11.16;86.83
65584;DHT22;73032;43.592;1.458;2023-11-21T00:19:35;11.14;86.59
65584;DHT22;73032;43.592;1.458;2023-11-21T00:22:02;11.16;86.56
65584;DHT22;73032;43.592;1.458;2023-11-21T00:24:29;11.13;86.61
65584;DHT22;73032;43.592;1.458;2023-11-21T00:26:55;11.17;86.79
65584;DHT22;73032;43.592;1.458;2023-11-21T00:29:22;11.20;86.60
65584;DHT22;73032;43.592;1.458;2023-11-21T00:31:49;11.20;86.69
65584;DHT22;73032;43.592;1.458;2023-11-21T00:34:15;11.23;86.28
65584;DHT22;73032;43.592;1.458;2023-11-21T00:36:42;11.24;86.45
65584;DHT22;73032;43.592;1.458;2023-11-21T00:39:09;11.26;86.34
65584;DHT22;73032;43.592;1.458;2023-11-21T00:41:36;11.26;86.37
65584;DHT22;73032;43.592;1.458;2023-11-21T00:44:03;11.24;86.27
65584;DHT22;73032;43.592;1.458;2023-11-21T00:46:31;11.24;86.28
65584;DHT22;73032;43.592;1.458;2023-11-21T00:48:58;11.23;85.96
65584;DHT22;73032;43.592;1.458;2023-11-21T00:51:25;11.21;86.24
65584;DHT22;73032;43.592;1.458;2023-11-21T00:53:52;11.21;86.46
65584;DHT22;73032;43.592;1.458;2023-11-21T00:56:18;11.20;86.53
65584;DHT22;73032;43.592;1.458;2023-11-21T00:58:45;11.20;86.53
65584;DHT22;73032;43.592;1.458;2023-11-21T01:01:16;11.21;86.45
65584;DHT22;73032;43.592;1.458;2023-11-21T01:03:46;11.16;86.46
65584;DHT22;73032;43.592;1.458;2023-11-21T01:06:13;11.14;86.59
65584;DHT22;73032;43.592;1.458;2023-11-21T01:08:43;11.16;86.72
65584;DHT22;73032;43.592;1.458;2023-11-21T01:11:10;11.16;86.56
65584;DHT22;73032;43.592;1.458;2023-11-21T01:13:39;11.16;86.55
65584;DHT22;73032;43.592;1.458;2023-11-21T01:16:07;11.11;86.40
65584;DHT22;73032;43.592;1.458;2023-11-21T01:18:35;11.13;86.58
65584;DHT22;73032;43.592;1.458;2023-11-21T01:21:01;11.10;86.64
65584;DHT22;73032;43.592;1.458;2023-11-21T01:23:28;11.10;86.45
65584;DHT22;73032;43.592;1.458;2023-11-21T01:25:57;11.09;86.28
65584;DHT22;73032;43.592;1.458;2023-11-21T01:28:24;11.11;86.26
65584;DHT22;73032;43.592;1.458;2023-11-21T01:30:51;11.07;85.88
65584;DHT22;73032;43.592;1.458;2023-11-21T01:33:18;11.09;85.92
65584;DHT22;73032;43.592;1.458;2023-11-21T01:35:45;11.10;86.12
65584;DHT22;73032;43.592;1.458;2023-11-21T01:38:13;11.11;85.83
65584;DHT22;73032;43.592;1.458;2023-11-21T01:40:40;11.11;86.02
65584;DHT22;73032;43.592;1.458;2023-11-21T01:43:07;11.11;85.89
65584;DHT22;73032;43.592;1.458;2023-11-21T01:45:35;11.10;85.70
65584;DHT22;73032;43.592;1.458;2023-11-21T01:48:02;11.09;85.98
65584;DHT22;73032;43.592;1.458;2023-11-21T01:50:30;11.14;85.88
65584;DHT22;73032;43.592;1.458;2023-11-21T01:52:57;11.11;85.65
65584;DHT22;73032;43.592;1.458;2023-11-21T01:55:24;11.10;85.82
65584;DHT22;73032;43.592;1.458;2023-11-21T01:57:55;11.11;86.03
65584;DHT22;73032;43.592;1.458;2023-11-21T02:00:22;11.03;86.31
65584;DHT22;73032;43.592;1.458;2023-11-21T02:02:51;11.01;86.50
65584;DHT22;73032;43.592;1.458;2023-11-21T02:05:19;10.97;86.61
65584;DHT22;73032;43.592;1.458;2023-11-21T02:07:46;10.96;86.75
65584;DHT22;73032;43.592;1.458;2023-11-21T02:10:16;10.93;86.70
65584;DHT22;73032;43.592;1.458;2023-11-21T02:12:44;10.92;86.95
65584;DHT22;73032;43.592;1.458;2023-11-21T02:15:14;10.93;87.10
65584;DHT22;73032;43.592;1.458;2023-11-21T02:17:42;10.90;87.32
65584;DHT22;73032;43.592;1.458;2023-11-21T02:20:13;10.90;87.11
65584;DHT22;73032;43.592;1.458;2023-11-21T02:22:49;10.93;87.26
65584;DHT22;73032;43.592;1.458;2023-11-21T02:25:16;10.89;87.26
65584;DHT22;73032;43.592;1.458;2023-11-21T02:27:42;10.90;87.44
65584;DHT22;73032;43.592;1.458;2023-11-21T02:30:10;10.89;87.57
65584;DHT22;73032;43.592;1.458;2023-11-21T02:32:39;10.87;87.57
65584;DHT22;73032;43.592;1.458;2023-11-21T02:35:15;10.83;87.43
65584;DHT22;73032;43.592;1.458;2023-11-21T02:37:42;10.80;87.57
65584;DHT22;73032;43.592;1.458;2023-11-21T02:40:09;10.80;87.75
65584;DHT22;73032;43.592;1.458;2023-11-21T02:42:36;10.80;87.71
65584;DHT22;73032;43.592;1.458;2023-11-21T02:45:03;10.81;87.91
65584;DHT22;73032;43.592;1.458;2023-11-21T02:47:32;10.77;87.82
65584;DHT22;73032;43.592;1.458;2023-11-21T02:49:58;10.77;87.83
65584;DHT22;73032;43.592;1.458;2023-11-21T02:52:25;10.73;87.97
65584;DHT22;73032;43.592;1.458;2023-11-21T02:54:52;10.70;88.05
65584;DHT22;73032;43.592;1.458;2023-11-21T02:57:19;10.69;88.09
65584;DHT22;73032;43.592;1.458;2023-11-21T02:59:45;10.69;88.29
65584;DHT22;73032;43.592;1.458;2023-11-21T03:02:12;10.69;88.32
65584;DHT22;73032;43.592;1.458;2023-11-21T03:04:39;10.63;88.27
65584;DHT22;73032;43.592;1.458;2023-11-21T03:07:05;10.65;88.11
65584;DHT22;73032;43.592;1.458;2023-11-21T03:09:32;10.59;88.21
65584;DHT22;73032;43.592;1.458;2023-11-21T03:11:59;10.57;88.33
65584;DHT22;73032;43.592;1.458;2023-11-21T03:14:25;10.57;88.29
65584;DHT22;73032;43.592;1.458;2023-11-21T03:16:52;10.56;88.49
65584;DHT22;73032;43.592;1.458;2023-11-21T03:19:19;10.56;88.53
65584;DHT22;73032;43.592;1.458;2023-11-21T03:21:45;10.57;88.37
65584;DHT22;73032;43.592;1.458;2023-11-21T03:24:12;10.59;88.45
65584;DHT22;73032;43.592;1.458;2023-11-21T03:26:39;10.57;88.33
65584;DHT22;73032;43.592;1.458;2023-11-21T03:29:05;10.53;88.39
65584;DHT22;73032;43.592;1.458;2023-11-21T03:31:32;10.56;88.51
65584;DHT22;73032;43.592;1.458;2023-11-21T03:33:59;10.62;88.47
65584;DHT22;73032;43.592;1.458;2023-11-21T03:36:25;10.57;88.53
65584;DHT22;73032;43.592;1.458;2023-11-21T03:38:52;10.62;88.73
65584;DHT22;73032;43.592;1.458;2023-11-21T03:41:19;10.60;88.52
65584;DHT22;73032;43.592;1.458;2023-11-21T03:43:45;10.60;88.57
65584;DHT22;73032;43.592;1.458;2023-11-21T03:46:12;10.62;88.33
65584;DHT22;73032;43.592;1.458;2023-11-21T03:48:39;10.56;88.52
65584;DHT22;73032;43.592;1.458;2023-11-21T03:51:06;10.59;88.24
65584;DHT22;73032;43.592;1.458;2023-11-21T03:53:33;10.57;88.21
65584;DHT22;73032;43.592;1.458;2023-11-21T03:56:02;10.56;88.33
65584;DHT22;73032;43.592;1.458;2023-11-21T03:58:30;10.50;88.43
65584;DHT22;73032;43.592;1.458;2023-11-21T04:00:56;10.53;88.40
65584;DHT22;73032;43.592;1.458;2023-11-21T04:03:23;10.52;88.47
65584;DHT22;73032;43.592;1.458;2023-11-21T04:05:50;10.53;88.53
65584;DHT22;73032;43.592;1.458;2023-11-21T04:08:17;10.55;88.36
65584;DHT22;73032;43.592;1.458;2023-11-21T04:10:43;10.53;88.28
65584;DHT22;73032;43.592;1.458;2023-11-21T04:13:11;10.53;88.26
65584;DHT22;73032;43.592;1.458;2023-11-21T04:15:37;10.53;88.05
65584;DHT22;73032;43.592;1.458;2023-11-21T04:18:04;10.50;88.20
65584;DHT22;73032;43.592;1.458;2023-11-21T04:20:31;10.48;88.18
65584;DHT22;73032;43.592;1.458;2023-11-21T04:22:57;10.50;88.31
65584;DHT22;73032;43.592;1.458;2023-11-21T04:25:24;10.50;88.34
65584;DHT22;73032;43.592;1.458;2023-11-21T04:27:51;10.52;87.90
65584;DHT22;73032;43.592;1.458;2023-11-21T04:30:18;10.52;88.11
65584;DHT22;73032;43.592;1.458;2023-11-21T04:32:44;10.52;88.12
65584;DHT22;73032;43.592;1.458;2023-11-21T04:35:11;10.49;87.65
65584;DHT22;73032;43.592;1.458;2023-11-21T04:37:38;10.45;87.71
65584;DHT22;73032;43.592;1.458;2023-11-21T04:40:05;10.39;88.07
65584;DHT22;73032;43.592;1.458;2023-11-21T04:42:35;10.36;88.15
65584;DHT22;73032;43.592;1.458;2023-11-21T04:45:05;10.39;88.22
65584;DHT22;73032;43.592;1.458;2023-11-21T04:47:36;10.35;88.13
65584;DHT22;73032;43.592;1.458;2023-11-21T04:50:03;10.38;88.19
65584;DHT22;73032;43.592;1.458;2023-11-21T04:52:30;10.35;88.02
65584;DHT22;73032;43.592;1.458;2023-11-21T04:54:57;10.36;88.25
65584;DHT22;73032;43.592;1.458;2023-11-21T04:57:25;10.36;88.37
65584;DHT22;73032;43.592;1.458;2023-11-21T04:59:51;10.36;88.09
65584;DHT22;73032;43.592;1.458;2023-11-21T05:02:18;10.36;88.03
65584;DHT22;73032;43.592;1.458;2023-11-21T05:05:04;10.34;88.04
65584;DHT22;73032;43.592;1.458;2023-11-21T05:07:33;10.39;87.98
65584;DHT22;73032;43.592;1.458;2023-11-21T05:10:04;10.36;87.98
65584;DHT22;73032;43.592;1.458;2023-11-21T05:12:34;10.34;88.13
65584;DHT22;73032;43.592;1.458;2023-11-21T05:15:07;10.35;88.05
65584;DHT22;73032;43.592;1.458;2023-11-21T05:17:38;10.36;88.35
65584;DHT22;73032;43.592;1.458;2023-11-21T05:20:13;10.36;88.04
65584;DHT22;73032;43.592;1.458;2023-11-21T05:22:40;10.38;87.98
65584;DHT22;73032;43.592;1.458;2023-11-21T05:25:08;10.35;88.22
65584;DHT22;73032;43.592;1.458;2023-11-21T05:27:35;10.38;88.03
65584;DHT22;73032;43.592;1.458;2023-11-21T05:30:04;10.38;88.07
65584;DHT22;73032;43.592;1.458;2023-11-21T05:32:32;10.41;88.04
65584;DHT22;73032;43.592;1.458;2023-11-21T05:34:59;10.41;88.03
65584;DHT22;73032;43.592;1.458;2023-11-21T05:37:26;10.44;87.93
65584;DHT22;73032;43.592;1.458;2023-11-21T05:39:53;10.46;88.00
65584;DHT22;73032;43.592;1.458;2023-11-21T05:42:23;10.46;87.92
65584;DHT22;73032;43.592;1.458;2023-11-21T05:44:50;10.49;87.94
65584;DHT22;73032;43.592;1.458;2023-11-21T05:47:17;10.48;87.89
65584;DHT22;73032;43.592;1.458;2023-11-21T05:49:44;10.49;88.14
65584;DHT22;73032;43.592;1.458;2023-11-21T05:52:12;10.50;88.09
65584;DHT22;73032;43.592;1.458;2023-11-21T05:54:38;10.50;88.07
65584;DHT22;73032;43.592;1.458;2023-11-21T05:57:05;10.52;88.14
65584;DHT22;73032;43.592;1.458;2023-11-21T05:59:32;10.56;88.10
65584;DHT22;73032;43.592;1.458;2023-11-21T06:01:58;10.57;87.94
65584;DHT22;73032;43.592;1.458;2023-11-21T06:04:25;10.55;88.00
65584;DHT22;73032;43.592;1.458;2023-11-21T06:06:52;10.56;88.19
65584;DHT22;73032;43.592;1.458;2023-11-21T06:09:19;10.57;88.19
65584;DHT22;73032;43.592;1.458;2023-11-21T06:11:47;10.56;88.46
65584;DHT22;73032;43.592;1.458;2023-11-21T06:14:13;10.56;88.74
65584;DHT22;73032;43.592;1.458;2023-11-21T06:16:44;10.56;88.89
65584;DHT22;73032;43.592;1.458;2023-11-21T06:19:11;10.55;89.00
65584;DHT22;73032;43.592;1.458;2023-11-21T06:21:39;10.53;89.08
65584;DHT22;73032;43.592;1.458;2023-11-21T06:24:05;10.55;89.26
65584;DHT22;73032;43.592;1.458;2023-11-21T06:26:33;10.55;89.39
65584;DHT22;73032;43.592;1.458;2023-11-21T06:29:00;10.55;89.28
65584;DHT22;73032;43.592;1.458;2023-11-21T06:31:30;10.57;89.45
65584;DHT22;73032;43.592;1.458;2023-11-21T06:33:57;10.56;89.46
65584;DHT22;73032;43.592;1.458;2023-11-21T06:36:26;10.55;89.44
65584;DHT22;73032;43.592;1.458;2023-11-21T06:38:53;10.56;89.49
65584;DHT22;73032;43.592;1.458;2023-11-21T06:41:19;10.56;89.51
65584;DHT22;73032;43.592;1.458;2023-11-21T06:43:47;10.57;89.51
65584;DHT22;73032;43.592;1.458;2023-11-21T06:46:14;10.55;89.65
65584;DHT22;73032;43.592;1.458;2023-11-21T06:48:43;10.53;89.68
65584;DHT22;73032;43.592;1.458;2023-11-21T06:51:10;10.57;89.68
65584;DHT22;73032;43.592;1.458;2023-11-21T06:53:37;10.55;89.69
65584;DHT22;73032;43.592;1.458;2023-11-21T06:56:14;10.55;89.69
65584;DHT22;73032;43.592;1.458;2023-11-21T06:58:41;10.55;89.76
65584;DHT22;73032;43.592;1.458;2023-11-21T07:01:08;10.56;89.83
65584;DHT22;73032;43.592;1.458;2023-11-21T07:03:35;10.60;89.86
65584;DHT22;73032;43.592;1.458;2023-11-21T07:06:04;10.60;89.82
65584;DHT22;73032;43.592;1.458;2023-11-21T07:08:31;10.60;89.84
65584;DHT22;73032;43.592;1.458;2023-11-21T07:10:57;10.62;90.02
65584;DHT22;73032;43.592;1.458;2023-11-21T07:13:24;10.63;89.99
65584;DHT22;73032;43.592;1.458;2023-11-21T07:15:51;10.63;90.09
65584;DHT22;73032;43.592;1.458;2023-11-21T07:18:18;10.63;90.16
65584;DHT22;73032;43.592;1.458;2023-11-21T07:20:45;10.63;90.27
65584;DHT22;73032;43.592;1.458;2023-11-21T07:23:12;10.60;90.29
65584;DHT22;73032;43.592;1.458;2023-11-21T07:25:39;10.62;90.36
65584;DHT22;73032;43.592;1.458;2023-11-21T07:28:07;10.65;90.36
65584;DHT22;73032;43.592;1.458;2023-11-21T07:30:34;10.66;90.40
65584;DHT22;73032;43.592;1.458;2023-11-21T07:33:01;10.67;90.29
65584;DHT22;73032;43.592;1.458;2023-11-21T07:35:28;10.70;90.33
65584;DHT22;73032;43.592;1.458;2023-11-21T07:37:54;10.69;90.46
65584;DHT22;73032;43.592;1.458;2023-11-21T07:40:21;10.67;90.61
65584;DHT22;73032;43.592;1.458;2023-11-21T07:42:49;10.69;90.69
65584;DHT22;73032;43.592;1.458;2023-11-21T07:45:16;10.70;90.72
65584;DHT22;73032;43.592;1.458;2023-11-21T07:47:43;10.72;90.80
65584;DHT22;73032;43.592;1.458;2023-11-21T07:50:13;10.75;90.90
65584;DHT22;73032;43.592;1.458;2023-11-21T07:52:43;10.73;90.92
65584;DHT22;73032;43.592;1.458;2023-11-21T07:55:09;10.77;91.02
65584;DHT22;73032;43.592;1.458;2023-11-21T07:57:37;10.77;91.01
65584;DHT22;73032;43.592;1.458;2023-11-21T08:00:05;10.80;90.98
65584;DHT22;73032;43.592;1.458;2023-11-21T08:02:39;10.80;91.03
65584;DHT22;73032;43.592;1.458;2023-11-21T08:05:09;10.83;91.01
65584;DHT22;73032;43.592;1.458;2023-11-21T08:07:50;10.83;91.06
65584;DHT22;73032;43.592;1.458;2023-11-21T08:10:17;10.83;91.15
65584;DHT22;73032;43.592;1.458;2023-11-21T08:12:44;10.89;91.14
65584;DHT22;73032;43.592;1.458;2023-11-21T08:15:10;10.87;91.08
65584;DHT22;73032;43.592;1.458;2023-11-21T08:17:37;10.89;91.09
65584;DHT22;73032;43.592;1.458;2023-11-21T08:20:06;10.95;91.17
65584;DHT22;73032;43.592;1.458;2023-11-21T08:22:35;10.92;91.10
65584;DHT22;73032;43.592;1.458;2023-11-21T08:25:02;10.96;91.15
65584;DHT22;73032;43.592;1.458;2023-11-21T08:27:31;11.01;91.09
65584;DHT22;73032;43.592;1.458;2023-11-21T08:29:57;11.01;91.05
65584;DHT22;73032;43.592;1.458;2023-11-21T08:32:24;11.04;91.10
65584;DHT22;73032;43.592;1.458;2023-11-21T08:34:51;11.06;91.16
65584;DHT22;73032;43.592;1.458;2023-11-21T08:37:19;11.07;91.21
65584;DHT22;73032;43.592;1.458;2023-11-21T08:39:46;11.09;91.19
65584;DHT22;73032;43.592;1.458;2023-11-21T08:42:14;11.10;91.22
65584;DHT22;73032;43.592;1.458;2023-11-21T08:44:41;11.14;91.15
65584;DHT22;73032;43.592;1.458;2023-11-21T08:47:08;11.16;91.12
65584;DHT22;73032;43.592;1.458;2023-11-21T08:49:34;11.17;91.14
65584;DHT22;73032;43.592;1.458;2023-11-21T08:52:01;11.21;91.15
65584;DHT22;73032;43.592;1.458;2023-11-21T08:54:28;11.24;91.05
65584;DHT22;73032;43.592;1.458;2023-11-21T08:56:55;11.24;90.93
65584;DHT22;73032;43.592;1.458;2023-11-21T08:59:25;11.26;91.00
65584;DHT22;73032;43.592;1.458;2023-11-21T09:01:52;11.27;90.91
65584;DHT22;73032;43.592;1.458;2023-11-21T09:04:18;11.28;90.84
65584;DHT22;73032;43.592;1.458;2023-11-21T09:06:45;11.27;90.79
65584;DHT22;73032;43.592;1.458;2023-11-21T09:09:12;11.28;90.81
65584;DHT22;73032;43.592;1.458;2023-11-21T09:11:38;11.26;90.89
65584;DHT22;73032;43.592;1.458;2023-11-21T09:14:05;11.28;90.85
65584;DHT22;73032;43.592;1.458;2023-11-21T09:16:32;11.28;90.96
65584;DHT22;73032;43.592;1.458;2023-11-21T09:18:59;11.28;91.03
65584;DHT22;73032;43.592;1.458;2023-11-21T09:21:28;11.30;91.01
65584;DHT22;73032;43.592;1.458;2023-11-21T09:23:55;11.28;90.87
65584;DHT22;73032;43.592;1.458;2023-11-21T09:26:21;11.30;90.91
65584;DHT22;73032;43.592;1.458;2023-11-21T09:28:48;11.33;90.96
65584;DHT22;73032;43.592;1.458;2023-11-21T09:31:15;11.34;90.93
65584;DHT22;73032;43.592;1.458;2023-11-21T09:33:46;11.37;90.80
65584;DHT22;73032;43.592;1.458;2023-11-21T09:36:14;11.35;90.81
65584;DHT22;73032;43.592;1.458;2023-11-21T09:38:41;11.37;90.85
65584;DHT22;73032;43.592;1.458;2023-11-21T09:41:37;11.40;90.80
65584;DHT22;73032;43.592;1.458;2023-11-21T09:44:09;11.40;90.74
65584;DHT22;73032;43.592;1.458;2023-11-21T09:46:41;11.44;90.79
65584;DHT22;73032;43.592;1.458;2023-11-21T09:49:11;11.47;90.74
65584;DHT22;73032;43.592;1.458;2023-11-21T09:51:42;11.51;90.71
65584;DHT22;73032;43.592;1.458;2023-11-21T09:54:10;11.51;90.64
65584;DHT22;73032;43.592;1.458;2023-11-21T09:56:38;11.52;90.60
65584;DHT22;73032;43.592;1.458;2023-11-21T09:59:05;11.55;90.61
65584;DHT22;73032;43.592;1.458;2023-11-21T10:01:36;11.58;90.40
65584;DHT22;73032;43.592;1.458;2023-11-21T10:04:04;11.57;90.38
65584;DHT22;73032;43.592;1.458;2023-11-21T10:06:33;11.61;90.28
65584;DHT22;73032;43.592;1.458;2023-11-21T10:08:59;11.61;90.20
65584;DHT22;73032;43.592;1.458;2023-11-21T10:11:27;11.64;90.23
65584;DHT22;73032;43.592;1.458;2023-11-21T10:13:54;11.67;90.07
65584;DHT22;73032;43.592;1.458;2023-11-21T10:16:25;11.65;90.07
65584;DHT22;73032;43.592;1.458;2023-11-21T10:18:53;11.70;90.07
65584;DHT22;73032;43.592;1.458;2023-11-21T10:21:34;11.72;90.00
65584;DHT22;73032;43.592;1.458;2023-11-21T10:24:01;11.75;89.99
65584;DHT22;73032;43.592;1.458;2023-11-21T10:26:28;11.75;90.03
65584;DHT22;73032;43.592;1.458;2023-11-21T10:28:58;11.77;90.08
65584;DHT22;73032;43.592;1.458;2023-11-21T10:31:32;11.82;89.89
65584;DHT22;73032;43.592;1.458;2023-11-21T10:34:15;11.85;89.88
65584;DHT22;73032;43.592;1.458;2023-11-21T10:36:43;11.88;89.95
65584;DHT22;73032;43.592;1.458;2023-11-21T10:39:09;11.92;89.74
65584;DHT22;73032;43.592;1.458;2023-11-21T10:41:39;11.91;89.52
65584;DHT22;73032;43.592;1.458;2023-11-21T10:44:08;11.89;89.48
65584;DHT22;73032;43.592;1.458;2023-11-21T10:46:35;11.91;89.61
65584;DHT22;73032;43.592;1.458;2023-11-21T10:49:02;11.89;89.57
65584;DHT22;73032;43.592;1.458;2023-11-21T10:51:29;11.92;89.39
65584;DHT22;73032;43.592;1.458;2023-11-21T10:53:56;11.94;89.39
65584;DHT22;73032;43.592;1.458;2023-11-21T10:56:23;11.94;89.25
65584;DHT22;73032;43.592;1.458;2023-11-21T10:58:50;11.94;89.07
65584;DHT22;73032;43.592;1.458;2023-11-21T11:01:20;11.94;89.07
65584;DHT22;73032;43.592;1.458;2023-11-21T11:03:48;11.91;88.93
65584;DHT22;73032;43.592;1.458;2023-11-21T11:06:16;11.92;89.11
65584;DHT22;73032;43.592;1.458;2023-11-21T11:08:44;11.91;89.03
65584;DHT22;73032;43.592;1.458;2023-11-21T11:11:11;11.88;89.23
65584;DHT22;73032;43.592;1.458;2023-11-21T11:13:43;11.91;89.30
65584;DHT22;73032;43.592;1.458;2023-11-21T11:16:10;11.92;89.27
65584;DHT22;73032;43.592;1.458;2023-11-21T11:18:38;11.94;89.37
65584;DHT22;73032;43.592;1.458;2023-11-21T11:21:31;11.92;89.33
65584;DHT22;73032;43.592;1.458;2023-11-21T11:27:11;11.85;89.94
65584;DHT22;73032;43.592;1.458;2023-11-21T11:30:01;11.84;90.19
65584;DHT22;73032;43.592;1.458;2023-11-21T11:35:26;11.89;90.52
65584;DHT22;73032;43.592;1.458;2023-11-21T11:37:57;11.94;90.55
65584;DHT22;73032;43.592;1.458;2023-11-21T11:40:38;11.94;90.49
65584;DHT22;73032;43.592;1.458;2023-11-21T11:43:06;11.99;90.66
65584;DHT22;73032;43.592;1.458;2023-11-21T11:45:34;12.04;90.61
65584;DHT22;73032;43.592;1.458;2023-11-21T11:48:02;12.08;90.55
65584;DHT22;73032;43.592;1.458;2023-11-21T11:50:30;12.09;90.23
65584;DHT22;73032;43.592;1.458;2023-11-21T11:53:12;12.12;89.64
65584;DHT22;73032;43.592;1.458;2023-11-21T11:55:39;12.14;89.36
65584;DHT22;73032;43.592;1.458;2023-11-21T11:58:07;12.14;89.49
65584;DHT22;73032;43.592;1.458;2023-11-21T12:00:35;12.18;89.01
65584;DHT22;73032;43.592;1.458;2023-11-21T12:03:05;12.19;88.86
65584;DHT22;73032;43.592;1.458;2023-11-21T12:05:35;12.21;88.92
65584;DHT22;73032;43.592;1.458;2023-11-21T12:08:06;12.24;88.74
65584;DHT22;73032;43.592;1.458;2023-11-21T12:10:38;12.25;88.56
65584;DHT22;73032;43.592;1.458;2023-11-21T12:13:07;12.28;88.46
65584;DHT22;73032;43.592;1.458;2023-11-21T12:15:35;12.30;88.65
65584;DHT22;73032;43.592;1.458;2023-11-21T12:18:04;12.35;88.50
65584;DHT22;73032;43.592;1.458;2023-11-21T12:20:31;12.35;87.76
65584;DHT22;73032;43.592;1.458;2023-11-21T12:22:59;12.40;88.08
65584;DHT22;73032;43.592;1.458;2023-11-21T12:25:30;12.38;88.00
65584;DHT22;73032;43.592;1.458;2023-11-21T12:28:01;12.35;87.36
65584;DHT22;73032;43.592;1.458;2023-11-21T12:30:33;12.38;87.36
65584;DHT22;73032;43.592;1.458;2023-11-21T12:33:02;12.35;87.37
65584;DHT22;73032;43.592;1.458;2023-11-21T12:35:34;12.33;87.28
65584;DHT22;73032;43.592;1.458;2023-11-21T12:38:05;12.36;87.28
65584;DHT22;73032;43.592;1.458;2023-11-21T12:40:32;12.30;87.11
65584;DHT22;73032;43.592;1.458;2023-11-21T12:43:00;12.30;87.60
65584;DHT22;73032;43.592;1.458;2023-11-21T12:45:29;12.29;87.79
65584;DHT22;73032;43.592;1.458;2023-11-21T12:48:03;12.22;88.05
65584;DHT22;73032;43.592;1.458;2023-11-21T12:50:35;12.22;88.26
65584;DHT22;73032;43.592;1.458;2023-11-21T12:53:07;12.24;88.38
65584;DHT22;73032;43.592;1.458;2023-11-21T12:55:43;12.25;88.54
65584;DHT22;73032;43.592;1.458;2023-11-21T12:58:17;12.21;88.33
65584;DHT22;73032;43.592;1.458;2023-11-21T13:00:47;12.22;88.50
65584;DHT22;73032;43.592;1.458;2023-11-21T13:03:16;12.22;88.50
65584;DHT22;73032;43.592;1.458;2023-11-21T13:05:47;12.22;88.61
65584;DHT22;73032;43.592;1.458;2023-11-21T13:08:18;12.25;88.70
65584;DHT22;73032;43.592;1.458;2023-11-21T13:10:54;12.38;88.45
65584;DHT22;73032;43.592;1.458;2023-11-21T13:13:23;12.39;88.33
65584;DHT22;73032;43.592;1.458;2023-11-21T13:16:02;12.42;88.34
65584;DHT22;73032;43.592;1.458;2023-11-21T13:18:32;12.40;88.34
65584;DHT22;73032;43.592;1.458;2023-11-21T13:21:01;12.36;88.09
65584;DHT22;73032;43.592;1.458;2023-11-21T13:23:34;12.32;88.35
65584;DHT22;73032;43.592;1.458;2023-11-21T13:26:02;12.30;88.46
65584;DHT22;73032;43.592;1.458;2023-11-21T13:28:33;12.29;88.52
65584;DHT22;73032;43.592;1.458;2023-11-21T13:31:02;12.28;88.81
65584;DHT22;73032;43.592;1.458;2023-11-21T13:33:36;12.26;88.65
65584;DHT22;73032;43.592;1.458;2023-11-21T13:36:09;12.26;88.16
65584;DHT22;73032;43.592;1.458;2023-11-21T13:38:38;12.21;88.22
65584;DHT22;73032;43.592;1.458;2023-11-21T13:41:09;12.21;88.02
65584;DHT22;73032;43.592;1.458;2023-11-21T13:43:37;12.24;87.83
65584;DHT22;73032;43.592;1.458;2023-11-21T13:46:04;12.30;87.67
65584;DHT22;73032;43.592;1.458;2023-11-21T13:48:40;12.36;87.79
65584;DHT22;73032;43.592;1.458;2023-11-21T13:51:17;12.38;87.07
65584;DHT22;73032;43.592;1.458;2023-11-21T13:53:45;12.42;86.91
65584;DHT22;73032;43.592;1.458;2023-11-21T13:56:15;12.42;86.93
65584;DHT22;73032;43.592;1.458;2023-11-21T13:58:51;12.42;86.93
65584;DHT22;73032;43.592;1.458;2023-11-21T14:01:22;12.38;86.95
65584;DHT22;73032;43.592;1.458;2023-11-21T14:03:56;12.39;86.73
65584;DHT22;73032;43.592;1.458;2023-11-21T14:06:29;12.42;87.13
65584;DHT22;73032;43.592;1.458;2023-11-21T14:09:01;12.39;86.92
65584;DHT22;73032;43.592;1.458;2023-11-21T14:11:32;12.40;87.06
65584;DHT22;73032;43.592;1.458;2023-11-21T14:14:08;12.39;86.92
65584;DHT22;73032;43.592;1.458;2023-11-21T14:16:36;12.39;86.93
65584;DHT22;73032;43.592;1.458;2023-11-21T14:19:03;12.38;87.06
65584;DHT22;73032;43.592;1.458;2023-11-21T14:21:46;12.36;87.07
65584;DHT22;73032;43.592;1.458;2023-11-21T14:24:13;12.33;86.92
65584;DHT22;73032;43.592;1.458;2023-11-21T14:26:41;12.30;86.66
65584;DHT22;73032;43.592;1.458;2023-11-21T14:29:09;12.30;86.60
65584;DHT22;73032;43.592;1.458;2023-11-21T14:31:39;12.30;85.96
65584;DHT22;73032;43.592;1.458;2023-11-21T14:34:06;12.32;86.15
65584;DHT22;73032;43.592;1.458;2023-11-21T14:36:34;12.30;85.94
65584;DHT22;73032;43.592;1.458;2023-11-21T14:39:08;12.28;85.92
65584;DHT22;73032;43.592;1.458;2023-11-21T14:41:42;12.33;85.78
65584;DHT22;73032;43.592;1.458;2023-11-21T14:44:11;12.33;85.87
65584;DHT22;73032;43.592;1.458;2023-11-21T14:46:39;12.33;85.72
65584;DHT22;73032;43.592;1.458;2023-11-21T14:49:07;12.35;85.60
65584;DHT22;73032;43.592;1.458;2023-11-21T14:51:51;12.38;85.68
65584;DHT22;73032;43.592;1.458;2023-11-21T14:54:30;12.38;85.49
65584;DHT22;73032;43.592;1.458;2023-11-21T14:57:10;12.38;85.50
65584;DHT22;73032;43.592;1.458;2023-11-21T14:59:47;12.39;85.36
65584;DHT22;73032;43.592;1.458;2023-11-21T15:02:18;12.39;85.35
65584;DHT22;73032;43.592;1.458;2023-11-21T15:04:49;12.38;85.21
65584;DHT22;73032;43.592;1.458;2023-11-21T15:07:19;12.38;85.22
65584;DHT22;73032;43.592;1.458;2023-11-21T15:09:46;12.35;84.90
65584;DHT22;73032;43.592;1.458;2023-11-21T15:12:13;12.36;84.65
65584;DHT22;73032;43.592;1.458;2023-11-21T15:14:43;12.36;84.91
65584;DHT22;73032;43.592;1.458;2023-11-21T15:17:12;12.40;85.01
65584;DHT22;73032;43.592;1.458;2023-11-21T15:19:45;12.43;85.20
65584;DHT22;73032;43.592;1.458;2023-11-21T15:22:12;12.43;84.99
65584;DHT22;73032;43.592;1.458;2023-11-21T15:24:43;12.42;84.95
65584;DHT22;73032;43.592;1.458;2023-11-21T15:27:13;12.38;84.73
65584;DHT22;73032;43.592;1.458;2023-11-21T15:29:40;12.38;84.75
65584;DHT22;73032;43.592;1.458;2023-11-21T15:32:08;12.39;84.90
65584;DHT22;73032;43.592;1.458;2023-11-21T15:34:35;12.36;85.05
65584;DHT22;73032;43.592;1.458;2023-11-21T15:37:03;12.36;84.74
65584;DHT22;73032;43.592;1.458;2023-11-21T15:39:30;12.35;84.91
65584;DHT22;73032;43.592;1.458;2023-11-21T15:41:58;12.30;84.81
65584;DHT22;73032;43.592;1.458;2023-11-21T15:44:25;12.30;84.94
65584;DHT22;73032;43.592;1.458;2023-11-21T15:46:53;12.32;84.83